sensor_id;sensor_type;location;lat;lon;timestamp;P1;durP1;ratioP1;P2;durP2;ratioP2
1603;SDS011;795;49.296;11.348;2023-04-07T00:00:24;12.90;;;9.35;;
1603;SDS011;795;49.296;11.348;2023-04-07T00:02:52;13.30;;;9.60;;
1603;SDS011;795;49.296;11.348;2023-04-07T00:05:19;17.33;;;11.05;;
1603;SDS011;795;49.296;11.348;2023-04-07T00:07:46;14.48;;;11.68;;
1603;SDS011;795;49.296;11.348;2023-04-07T00:10:21;13.45;;;9.82;;
1603;SDS011;795;49.296;11.348;2023-04-07T00:12:50;14.60;;;10.43;;
1603;SDS011;795;49.296;11.348;2023-04-07T00:15:17;11.90;;;9.43;;
1603;SDS011;795;49.296;11.348;2023-04-07T00:17:44;17.55;;;13.05;;
1603;SDS011;795;49.296;11.348;2023-04-07T00:20:11;13.15;;;10.15;;
1603;SDS011;795;49.296;11.348;2023-04-07T00:22:38;14.98;;;10.48;;
1603;SDS011;795;49.296;11.348;2023-04-07T00:25:05;19.67;;;11.13;;
1603;SDS011;795;49.296;11.348;2023-04-07T00:27:33;13.90;;;9.93;;
1603;SDS011;795;49.296;11.348;2023-04-07T00:30:00;16.95;;;10.00;;
1603;SDS011;795;49.296;11.348;2023-04-07T00:32:29;12.45;;;9.93;;
1603;SDS011;795;49.296;11.348;2023-04-07T00:34:56;17.38;;;10.25;;
1603;SDS011;795;49.296;11.348;2023-04-07T00:37:27;11.55;;;9.27;;
1603;SDS011;795;49.296;11.348;2023-04-07T00:39:54;13.35;;;10.73;;
1603;SDS011;795;49.296;11.348;2023-04-07T00:42:23;10.35;;;9.15;;
1603;SDS011;795;49.296;11.348;2023-04-07T00:44:50;14.77;;;10.45;;
1603;SDS011;795;49.296;11.348;2023-04-07T00:47:17;10.73;;;9.05;;
1603;SDS011;795;49.296;11.348;2023-04-07T00:49:44;17.92;;;9.70;;
1603;SDS011;795;49.296;11.348;2023-04-07T00:52:11;13.35;;;9.10;;
1603;SDS011;795;49.296;11.348;2023-04-07T00:54:39;16.65;;;9.02;;
1603;SDS011;795;49.296;11.348;2023-04-07T00:57:08;17.15;;;9.77;;
1603;SDS011;795;49.296;11.348;2023-04-07T00:59:35;13.57;;;9.60;;
1603;SDS011;795;49.296;11.348;2023-04-07T01:05:15;20.10;;;9.77;;
1603;SDS011;795;49.296;11.348;2023-04-07T01:10:45;14.20;;;10.10;;
1603;SDS011;795;49.296;11.348;2023-04-07T01:16:26;18.02;;;8.85;;
1603;SDS011;795;49.296;11.348;2023-04-07T01:19:13;15.52;;;9.98;;
1603;SDS011;795;49.296;11.348;2023-04-07T01:22:07;12.10;;;9.75;;
1603;SDS011;795;49.296;11.348;2023-04-07T01:31:13;12.88;;;9.52;;
1603;SDS011;795;49.296;11.348;2023-04-07T01:33:45;15.63;;;10.52;;
1603;SDS011;795;49.296;11.348;2023-04-07T01:36:15;17.27;;;10.38;;
1603;SDS011;795;49.296;11.348;2023-04-07T01:38:44;12.75;;;9.32;;
1603;SDS011;795;49.296;11.348;2023-04-07T01:41:11;13.10;;;10.10;;
1603;SDS011;795;49.296;11.348;2023-04-07T01:43:42;13.57;;;10.15;;
1603;SDS011;795;49.296;11.348;2023-04-07T01:46:13;12.80;;;8.68;;
1603;SDS011;795;49.296;11.348;2023-04-07T01:48:40;10.90;;;8.18;;
1603;SDS011;795;49.296;11.348;2023-04-07T01:51:08;11.00;;;9.48;;
1603;SDS011;795;49.296;11.348;2023-04-07T01:53:39;14.43;;;9.52;;
1603;SDS011;795;49.296;11.348;2023-04-07T01:56:07;14.30;;;9.10;;
1603;SDS011;795;49.296;11.348;2023-04-07T01:58:33;13.30;;;10.48;;
1603;SDS011;795;49.296;11.348;2023-04-07T02:01:00;16.88;;;10.48;;
1603;SDS011;795;49.296;11.348;2023-04-07T02:03:30;13.82;;;9.30;;
1603;SDS011;795;49.296;11.348;2023-04-07T02:06:36;14.00;;;8.80;;
1603;SDS011;795;49.296;11.348;2023-04-07T02:09:14;14.27;;;10.05;;
1603;SDS011;795;49.296;11.348;2023-04-07T02:11:45;19.02;;;10.52;;
1603;SDS011;795;49.296;11.348;2023-04-07T02:14:16;14.63;;;9.75;;
1603;SDS011;795;49.296;11.348;2023-04-07T02:16:46;12.80;;;9.68;;
1603;SDS011;795;49.296;11.348;2023-04-07T02:19:16;17.63;;;11.07;;
1603;SDS011;795;49.296;11.348;2023-04-07T02:21:44;13.90;;;9.98;;
1603;SDS011;795;49.296;11.348;2023-04-07T02:24:13;16.83;;;9.70;;
1603;SDS011;795;49.296;11.348;2023-04-07T02:26:47;14.70;;;10.23;;
1603;SDS011;795;49.296;11.348;2023-04-07T02:29:14;18.48;;;9.55;;
1603;SDS011;795;49.296;11.348;2023-04-07T02:31:41;13.82;;;9.38;;
1603;SDS011;795;49.296;11.348;2023-04-07T02:34:08;13.75;;;9.27;;
1603;SDS011;795;49.296;11.348;2023-04-07T02:36:35;17.30;;;10.70;;
1603;SDS011;795;49.296;11.348;2023-04-07T02:39:02;16.67;;;10.07;;
1603;SDS011;795;49.296;11.348;2023-04-07T02:41:29;12.68;;;9.90;;
1603;SDS011;795;49.296;11.348;2023-04-07T02:43:56;16.73;;;9.23;;
1603;SDS011;795;49.296;11.348;2023-04-07T02:46:23;13.77;;;11.23;;
1603;SDS011;795;49.296;11.348;2023-04-07T02:48:50;14.65;;;10.15;;
1603;SDS011;795;49.296;11.348;2023-04-07T02:51:17;15.20;;;10.38;;
1603;SDS011;795;49.296;11.348;2023-04-07T02:53:44;13.77;;;10.23;;
1603;SDS011;795;49.296;11.348;2023-04-07T02:56:11;13.80;;;9.52;;
1603;SDS011;795;49.296;11.348;2023-04-07T02:58:38;17.08;;;9.63;;
1603;SDS011;795;49.296;11.348;2023-04-07T03:01:05;15.15;;;9.63;;
1603;SDS011;795;49.296;11.348;2023-04-07T03:03:32;15.73;;;10.48;;
1603;SDS011;795;49.296;11.348;2023-04-07T03:05:59;16.60;;;10.18;;
1603;SDS011;795;49.296;11.348;2023-04-07T03:08:26;16.23;;;10.73;;
1603;SDS011;795;49.296;11.348;2023-04-07T03:10:53;13.30;;;9.40;;
1603;SDS011;795;49.296;11.348;2023-04-07T03:13:20;12.55;;;10.45;;
1603;SDS011;795;49.296;11.348;2023-04-07T03:15:48;13.32;;;10.20;;
1603;SDS011;795;49.296;11.348;2023-04-07T03:18:14;18.23;;;9.73;;
1603;SDS011;795;49.296;11.348;2023-04-07T03:20:42;15.30;;;10.30;;
1603;SDS011;795;49.296;11.348;2023-04-07T03:23:09;20.17;;;9.85;;
1603;SDS011;795;49.296;11.348;2023-04-07T03:25:36;11.98;;;9.35;;
1603;SDS011;795;49.296;11.348;2023-04-07T03:28:03;14.10;;;9.38;;
1603;SDS011;795;49.296;11.348;2023-04-07T03:30:30;18.08;;;10.93;;
1603;SDS011;795;49.296;11.348;2023-04-07T03:32:57;14.13;;;9.38;;
1603;SDS011;795;49.296;11.348;2023-04-07T03:35:24;15.02;;;10.48;;
1603;SDS011;795;49.296;11.348;2023-04-07T03:37:52;14.65;;;10.63;;
1603;SDS011;795;49.296;11.348;2023-04-07T03:40:19;14.52;;;9.73;;
1603;SDS011;795;49.296;11.348;2023-04-07T03:42:46;16.75;;;10.45;;
1603;SDS011;795;49.296;11.348;2023-04-07T03:45:13;14.05;;;9.38;;
1603;SDS011;795;49.296;11.348;2023-04-07T03:47:42;15.18;;;10.20;;
1603;SDS011;795;49.296;11.348;2023-04-07T03:50:09;12.63;;;10.38;;
1603;SDS011;795;49.296;11.348;2023-04-07T03:52:36;12.73;;;9.88;;
1603;SDS011;795;49.296;11.348;2023-04-07T03:55:03;15.50;;;9.75;;
1603;SDS011;795;49.296;11.348;2023-04-07T03:57:31;12.05;;;9.60;;
1603;SDS011;795;49.296;11.348;2023-04-07T03:59:58;14.65;;;9.93;;
1603;SDS011;795;49.296;11.348;2023-04-07T04:02:25;11.73;;;9.73;;
1603;SDS011;795;49.296;11.348;2023-04-07T04:04:52;15.45;;;10.50;;
1603;SDS011;795;49.296;11.348;2023-04-07T04:07:19;16.50;;;12.05;;
1603;SDS011;795;49.296;11.348;2023-04-07T04:09:46;16.40;;;10.43;;
1603;SDS011;795;49.296;11.348;2023-04-07T04:12:13;17.98;;;11.95;;
1603;SDS011;795;49.296;11.348;2023-04-07T04:14:39;12.30;;;10.75;;
1603;SDS011;795;49.296;11.348;2023-04-07T04:17:06;12.95;;;9.13;;
1603;SDS011;795;49.296;11.348;2023-04-07T04:19:33;18.42;;;10.75;;
1603;SDS011;795;49.296;11.348;2023-04-07T04:22:00;16.20;;;10.88;;
1603;SDS011;795;49.296;11.348;2023-04-07T04:24:27;23.13;;;10.48;;
1603;SDS011;795;49.296;11.348;2023-04-07T04:26:54;12.23;;;9.40;;
1603;SDS011;795;49.296;11.348;2023-04-07T04:29:21;12.68;;;9.48;;
1603;SDS011;795;49.296;11.348;2023-04-07T04:31:48;17.30;;;10.98;;
1603;SDS011;795;49.296;11.348;2023-04-07T04:34:15;18.75;;;10.63;;
1603;SDS011;795;49.296;11.348;2023-04-07T04:36:42;17.60;;;11.77;;
1603;SDS011;795;49.296;11.348;2023-04-07T04:39:09;14.43;;;10.57;;
1603;SDS011;795;49.296;11.348;2023-04-07T04:41:36;12.20;;;10.05;;
1603;SDS011;795;49.296;11.348;2023-04-07T04:44:03;13.25;;;10.43;;
1603;SDS011;795;49.296;11.348;2023-04-07T04:46:30;14.82;;;10.23;;
1603;SDS011;795;49.296;11.348;2023-04-07T04:48:58;16.55;;;10.85;;
1603;SDS011;795;49.296;11.348;2023-04-07T04:51:25;13.25;;;10.27;;
1603;SDS011;795;49.296;11.348;2023-04-07T04:53:52;14.15;;;11.20;;
1603;SDS011;795;49.296;11.348;2023-04-07T04:56:23;13.93;;;9.70;;
1603;SDS011;795;49.296;11.348;2023-04-07T04:58:50;15.95;;;11.30;;
1603;SDS011;795;49.296;11.348;2023-04-07T05:01:17;17.40;;;10.77;;
1603;SDS011;795;49.296;11.348;2023-04-07T05:03:44;24.85;;;11.45;;
1603;SDS011;795;49.296;11.348;2023-04-07T05:06:11;16.15;;;12.10;;
1603;SDS011;795;49.296;11.348;2023-04-07T05:08:38;12.82;;;10.32;;
1603;SDS011;795;49.296;11.348;2023-04-07T05:11:05;14.18;;;10.80;;
1603;SDS011;795;49.296;11.348;2023-04-07T05:13:32;13.93;;;10.55;;
1603;SDS011;795;49.296;11.348;2023-04-07T05:15:59;16.05;;;11.52;;
1603;SDS011;795;49.296;11.348;2023-04-07T05:18:26;14.00;;;10.23;;
1603;SDS011;795;49.296;11.348;2023-04-07T05:20:53;13.88;;;8.82;;
1603;SDS011;795;49.296;11.348;2023-04-07T05:23:20;15.73;;;10.77;;
1603;SDS011;795;49.296;11.348;2023-04-07T05:25:47;15.73;;;12.32;;
1603;SDS011;795;49.296;11.348;2023-04-07T05:28:15;13.40;;;10.27;;
1603;SDS011;795;49.296;11.348;2023-04-07T05:30:42;12.90;;;10.43;;
1603;SDS011;795;49.296;11.348;2023-04-07T05:33:09;12.45;;;10.20;;
1603;SDS011;795;49.296;11.348;2023-04-07T05:35:36;14.70;;;12.00;;
1603;SDS011;795;49.296;11.348;2023-04-07T05:38:03;16.87;;;11.57;;
1603;SDS011;795;49.296;11.348;2023-04-07T05:40:30;13.83;;;10.23;;
1603;SDS011;795;49.296;11.348;2023-04-07T05:42:57;13.83;;;10.97;;
1603;SDS011;795;49.296;11.348;2023-04-07T05:45:24;14.37;;;11.10;;
1603;SDS011;795;49.296;11.348;2023-04-07T05:47:51;16.03;;;12.40;;
1603;SDS011;795;49.296;11.348;2023-04-07T05:50:18;14.17;;;10.53;;
1603;SDS011;795;49.296;11.348;2023-04-07T05:52:45;13.90;;;10.13;;
1603;SDS011;795;49.296;11.348;2023-04-07T05:55:12;16.03;;;12.53;;
1603;SDS011;795;49.296;11.348;2023-04-07T05:57:39;13.43;;;10.47;;
1603;SDS011;795;49.296;11.348;2023-04-07T06:00:06;13.17;;;10.03;;
1603;SDS011;795;49.296;11.348;2023-04-07T06:02:34;14.07;;;12.33;;
1603;SDS011;795;49.296;11.348;2023-04-07T06:05:02;13.77;;;11.13;;
1603;SDS011;795;49.296;11.348;2023-04-07T06:07:29;15.20;;;11.60;;
1603;SDS011;795;49.296;11.348;2023-04-07T06:09:56;12.40;;;10.43;;
1603;SDS011;795;49.296;11.348;2023-04-07T06:12:23;14.30;;;11.73;;
1603;SDS011;795;49.296;11.348;2023-04-07T06:14:51;15.93;;;10.80;;
1603;SDS011;795;49.296;11.348;2023-04-07T06:17:21;16.93;;;10.93;;
1603;SDS011;795;49.296;11.348;2023-04-07T06:19:49;13.90;;;11.17;;
1603;SDS011;795;49.296;11.348;2023-04-07T06:22:16;16.07;;;11.60;;
1603;SDS011;795;49.296;11.348;2023-04-07T06:24:43;12.80;;;10.90;;
1603;SDS011;795;49.296;11.348;2023-04-07T06:27:09;10.17;;;8.83;;
1603;SDS011;795;49.296;11.348;2023-04-07T06:29:36;15.70;;;10.30;;
1603;SDS011;795;49.296;11.348;2023-04-07T06:32:04;11.30;;;9.63;;
1603;SDS011;795;49.296;11.348;2023-04-07T06:34:31;13.53;;;11.20;;
1603;SDS011;795;49.296;11.348;2023-04-07T06:36:58;14.10;;;12.33;;
1603;SDS011;795;49.296;11.348;2023-04-07T06:39:26;14.67;;;12.10;;
1603;SDS011;795;49.296;11.348;2023-04-07T06:41:55;16.43;;;11.13;;
1603;SDS011;795;49.296;11.348;2023-04-07T06:44:22;13.63;;;10.10;;
1603;SDS011;795;49.296;11.348;2023-04-07T06:46:49;14.80;;;11.57;;
1603;SDS011;795;49.296;11.348;2023-04-07T06:49:18;14.43;;;11.07;;
1603;SDS011;795;49.296;11.348;2023-04-07T06:51:45;13.60;;;11.13;;
1603;SDS011;795;49.296;11.348;2023-04-07T06:54:12;15.60;;;11.50;;
1603;SDS011;795;49.296;11.348;2023-04-07T06:56:40;13.80;;;10.57;;
1603;SDS011;795;49.296;11.348;2023-04-07T06:59:08;11.63;;;10.50;;
1603;SDS011;795;49.296;11.348;2023-04-07T07:01:36;13.50;;;10.43;;
1603;SDS011;795;49.296;11.348;2023-04-07T07:04:03;12.73;;;9.63;;
1603;SDS011;795;49.296;11.348;2023-04-07T07:06:33;13.73;;;9.40;;
1603;SDS011;795;49.296;11.348;2023-04-07T07:09:00;12.70;;;9.97;;
1603;SDS011;795;49.296;11.348;2023-04-07T07:11:28;11.07;;;9.30;;
1603;SDS011;795;49.296;11.348;2023-04-07T07:13:55;11.17;;;10.00;;
1603;SDS011;795;49.296;11.348;2023-04-07T07:16:22;11.60;;;10.27;;
1603;SDS011;795;49.296;11.348;2023-04-07T07:18:49;16.10;;;10.03;;
1603;SDS011;795;49.296;11.348;2023-04-07T07:21:17;12.63;;;9.60;;
1603;SDS011;795;49.296;11.348;2023-04-07T07:23:46;11.73;;;10.53;;
1603;SDS011;795;49.296;11.348;2023-04-07T07:26:14;10.57;;;9.20;;
1603;SDS011;795;49.296;11.348;2023-04-07T07:28:41;13.10;;;9.77;;
1603;SDS011;795;49.296;11.348;2023-04-07T07:31:09;11.03;;;9.93;;
1603;SDS011;795;49.296;11.348;2023-04-07T07:33:40;10.40;;;9.40;;
1603;SDS011;795;49.296;11.348;2023-04-07T07:36:11;9.97;;;9.00;;
1603;SDS011;795;49.296;11.348;2023-04-07T07:38:38;13.57;;;9.03;;
1603;SDS011;795;49.296;11.348;2023-04-07T07:41:06;10.50;;;9.00;;
1603;SDS011;795;49.296;11.348;2023-04-07T07:43:33;15.53;;;9.30;;
1603;SDS011;795;49.296;11.348;2023-04-07T07:46:00;8.43;;;7.60;;
1603;SDS011;795;49.296;11.348;2023-04-07T07:48:27;10.53;;;9.17;;
1603;SDS011;795;49.296;11.348;2023-04-07T07:50:54;13.80;;;9.50;;
1603;SDS011;795;49.296;11.348;2023-04-07T07:53:22;9.93;;;8.87;;
1603;SDS011;795;49.296;11.348;2023-04-07T07:55:49;10.53;;;9.50;;
1603;SDS011;795;49.296;11.348;2023-04-07T07:58:16;11.00;;;9.90;;
1603;SDS011;795;49.296;11.348;2023-04-07T08:03:44;13.57;;;8.93;;
1603;SDS011;795;49.296;11.348;2023-04-07T08:06:12;9.90;;;8.90;;
1603;SDS011;795;49.296;11.348;2023-04-07T08:08:39;11.30;;;9.30;;
1603;SDS011;795;49.296;11.348;2023-04-07T08:11:06;10.20;;;9.10;;
1603;SDS011;795;49.296;11.348;2023-04-07T08:13:33;11.30;;;10.20;;
1603;SDS011;795;49.296;11.348;2023-04-07T08:16:00;9.10;;;8.20;;
1603;SDS011;795;49.296;11.348;2023-04-07T08:18:27;10.10;;;8.50;;
1603;SDS011;795;49.296;11.348;2023-04-07T08:20:54;10.23;;;9.10;;
1603;SDS011;795;49.296;11.348;2023-04-07T08:23:22;12.67;;;9.00;;
1603;SDS011;795;49.296;11.348;2023-04-07T08:25:49;9.80;;;8.80;;
1603;SDS011;795;49.296;11.348;2023-04-07T08:28:16;10.33;;;8.60;;
1603;SDS011;795;49.296;11.348;2023-04-07T08:30:43;9.77;;;8.17;;
1603;SDS011;795;49.296;11.348;2023-04-07T08:33:10;9.83;;;8.93;;
1603;SDS011;795;49.296;11.348;2023-04-07T08:35:37;9.57;;;8.67;;
1603;SDS011;795;49.296;11.348;2023-04-07T08:38:04;10.60;;;9.60;;
1603;SDS011;795;49.296;11.348;2023-04-07T08:40:32;10.40;;;9.30;;
1603;SDS011;795;49.296;11.348;2023-04-07T08:43:00;10.90;;;8.80;;
1603;SDS011;795;49.296;11.348;2023-04-07T08:45:37;11.27;;;8.80;;
1603;SDS011;795;49.296;11.348;2023-04-07T08:48:10;12.13;;;10.33;;
1603;SDS011;795;49.296;11.348;2023-04-07T08:50:50;11.67;;;8.80;;
1603;SDS011;795;49.296;11.348;2023-04-07T08:53:22;11.33;;;10.13;;
1603;SDS011;795;49.296;11.348;2023-04-07T08:56:03;11.43;;;9.43;;
1603;SDS011;795;49.296;11.348;2023-04-07T08:58:31;10.17;;;9.17;;
1603;SDS011;795;49.296;11.348;2023-04-07T09:01:02;10.37;;;9.37;;
1603;SDS011;795;49.296;11.348;2023-04-07T09:03:34;12.23;;;10.13;;
1603;SDS011;795;49.296;11.348;2023-04-07T09:06:01;11.47;;;10.27;;
1603;SDS011;795;49.296;11.348;2023-04-07T09:08:29;10.33;;;9.23;;
1603;SDS011;795;49.296;11.348;2023-04-07T09:10:56;12.17;;;10.13;;
1603;SDS011;795;49.296;11.348;2023-04-07T09:13:24;11.20;;;10.10;;
1603;SDS011;795;49.296;11.348;2023-04-07T09:15:51;10.80;;;9.70;;
1603;SDS011;795;49.296;11.348;2023-04-07T09:18:18;11.10;;;9.40;;
1603;SDS011;795;49.296;11.348;2023-04-07T09:20:55;11.73;;;9.67;;
1603;SDS011;795;49.296;11.348;2023-04-07T09:23:33;12.83;;;9.80;;
1603;SDS011;795;49.296;11.348;2023-04-07T09:28:48;13.37;;;10.50;;
1603;SDS011;795;49.296;11.348;2023-04-07T09:31:45;12.43;;;10.60;;
1603;SDS011;795;49.296;11.348;2023-04-07T09:34:23;10.87;;;9.77;;
1603;SDS011;795;49.296;11.348;2023-04-07T09:36:58;10.10;;;9.07;;
1603;SDS011;795;49.296;11.348;2023-04-07T09:39:26;11.83;;;10.63;;
1603;SDS011;795;49.296;11.348;2023-04-07T09:41:54;11.30;;;10.20;;
1603;SDS011;795;49.296;11.348;2023-04-07T09:44:22;12.40;;;9.37;;
1603;SDS011;795;49.296;11.348;2023-04-07T09:46:55;11.63;;;10.50;;
1603;SDS011;795;49.296;11.348;2023-04-07T09:49:24;11.90;;;10.00;;
1603;SDS011;795;49.296;11.348;2023-04-07T09:54:33;10.77;;;9.67;;
1603;SDS011;795;49.296;11.348;2023-04-07T09:57:08;11.60;;;10.50;;
1603;SDS011;795;49.296;11.348;2023-04-07T09:59:39;11.30;;;10.17;;
1603;SDS011;795;49.296;11.348;2023-04-07T10:02:10;10.80;;;9.80;;
1603;SDS011;795;49.296;11.348;2023-04-07T10:04:38;11.30;;;10.30;;
1603;SDS011;795;49.296;11.348;2023-04-07T10:07:06;10.77;;;9.83;;
1603;SDS011;795;49.296;11.348;2023-04-07T10:09:33;11.73;;;10.60;;
1603;SDS011;795;49.296;11.348;2023-04-07T10:12:00;12.40;;;11.10;;
1603;SDS011;795;49.296;11.348;2023-04-07T10:14:29;14.63;;;13.20;;
1603;SDS011;795;49.296;11.348;2023-04-07T10:16:58;13.30;;;11.30;;
1603;SDS011;795;49.296;11.348;2023-04-07T10:19:28;11.97;;;10.77;;
1603;SDS011;795;49.296;11.348;2023-04-07T10:22:01;12.40;;;10.80;;
1603;SDS011;795;49.296;11.348;2023-04-07T10:24:43;12.53;;;10.60;;
1603;SDS011;795;49.296;11.348;2023-04-07T10:27:28;11.60;;;10.43;;
1603;SDS011;795;49.296;11.348;2023-04-07T10:30:17;13.53;;;10.50;;
1603;SDS011;795;49.296;11.348;2023-04-07T10:32:54;16.23;;;10.60;;
1603;SDS011;795;49.296;11.348;2023-04-07T10:35:22;11.67;;;10.47;;
1603;SDS011;795;49.296;11.348;2023-04-07T10:40:47;11.80;;;10.70;;
1603;SDS011;795;49.296;11.348;2023-04-07T10:43:15;11.50;;;10.30;;
1603;SDS011;795;49.296;11.348;2023-04-07T10:46:06;12.17;;;10.97;;
1603;SDS011;795;49.296;11.348;2023-04-07T10:48:33;12.60;;;11.30;;
1603;SDS011;795;49.296;11.348;2023-04-07T10:53:31;14.63;;;11.30;;
1603;SDS011;795;49.296;11.348;2023-04-07T10:55:59;12.63;;;11.43;;
1603;SDS011;795;49.296;11.348;2023-04-07T10:58:29;14.43;;;12.63;;
1603;SDS011;795;49.296;11.348;2023-04-07T11:03:40;13.50;;;11.53;;
1603;SDS011;795;49.296;11.348;2023-04-07T11:06:21;12.03;;;10.83;;
1603;SDS011;795;49.296;11.348;2023-04-07T11:08:49;12.03;;;10.70;;
1603;SDS011;795;49.296;11.348;2023-04-07T11:11:20;13.63;;;12.00;;
1603;SDS011;795;49.296;11.348;2023-04-07T11:14:04;14.10;;;11.90;;
1603;SDS011;795;49.296;11.348;2023-04-07T11:16:35;14.50;;;13.10;;
1603;SDS011;795;49.296;11.348;2023-04-07T11:19:08;14.47;;;13.07;;
1603;SDS011;795;49.296;11.348;2023-04-07T11:21:36;16.80;;;12.20;;
1603;SDS011;795;49.296;11.348;2023-04-07T11:24:04;24.23;;;13.27;;
1603;SDS011;795;49.296;11.348;2023-04-07T11:26:35;12.87;;;11.67;;
1603;SDS011;795;49.296;11.348;2023-04-07T11:29:07;13.83;;;12.43;;
1603;SDS011;795;49.296;11.348;2023-04-07T11:31:35;13.53;;;12.00;;
1603;SDS011;795;49.296;11.348;2023-04-07T11:34:03;13.10;;;11.90;;
1603;SDS011;795;49.296;11.348;2023-04-07T11:36:32;12.70;;;11.40;;
1603;SDS011;795;49.296;11.348;2023-04-07T11:39:19;13.63;;;12.23;;
1603;SDS011;795;49.296;11.348;2023-04-07T11:41:48;12.97;;;11.77;;
1603;SDS011;795;49.296;11.348;2023-04-07T11:44:16;12.90;;;11.60;;
1603;SDS011;795;49.296;11.348;2023-04-07T11:46:56;12.10;;;10.97;;
1603;SDS011;795;49.296;11.348;2023-04-07T11:49:27;10.80;;;9.70;;
1603;SDS011;795;49.296;11.348;2023-04-07T11:51:59;10.53;;;9.33;;
1603;SDS011;795;49.296;11.348;2023-04-07T11:54:39;9.77;;;8.77;;
1603;SDS011;795;49.296;11.348;2023-04-07T11:57:08;10.00;;;9.00;;
1603;SDS011;795;49.296;11.348;2023-04-07T11:59:38;10.77;;;9.87;;
1603;SDS011;795;49.296;11.348;2023-04-07T12:02:06;10.13;;;9.13;;
1603;SDS011;795;49.296;11.348;2023-04-07T12:04:34;10.53;;;9.63;;
1603;SDS011;795;49.296;11.348;2023-04-07T12:07:06;10.60;;;9.60;;
1603;SDS011;795;49.296;11.348;2023-04-07T12:09:37;8.43;;;7.73;;
1603;SDS011;795;49.296;11.348;2023-04-07T12:12:05;9.60;;;8.80;;
1603;SDS011;795;49.296;11.348;2023-04-07T12:14:33;11.33;;;8.87;;
1603;SDS011;795;49.296;11.348;2023-04-07T12:17:02;10.80;;;9.13;;
1603;SDS011;795;49.296;11.348;2023-04-07T12:19:30;9.97;;;9.07;;
1603;SDS011;795;49.296;11.348;2023-04-07T12:22:00;9.90;;;8.97;;
1603;SDS011;795;49.296;11.348;2023-04-07T12:24:27;10.73;;;9.30;;
1603;SDS011;795;49.296;11.348;2023-04-07T12:26:56;10.17;;;9.17;;
1603;SDS011;795;49.296;11.348;2023-04-07T12:29:23;9.90;;;9.03;;
1603;SDS011;795;49.296;11.348;2023-04-07T12:31:50;9.50;;;8.60;;
1603;SDS011;795;49.296;11.348;2023-04-07T12:34:17;9.93;;;8.93;;
1603;SDS011;795;49.296;11.348;2023-04-07T12:36:44;9.73;;;8.50;;
1603;SDS011;795;49.296;11.348;2023-04-07T12:39:11;10.50;;;9.50;;
1603;SDS011;795;49.296;11.348;2023-04-07T12:41:38;9.90;;;8.83;;
1603;SDS011;795;49.296;11.348;2023-04-07T12:44:08;8.67;;;7.77;;
1603;SDS011;795;49.296;11.348;2023-04-07T12:46:35;7.70;;;7.10;;
1603;SDS011;795;49.296;11.348;2023-04-07T12:49:02;8.90;;;8.00;;
1603;SDS011;795;49.296;11.348;2023-04-07T12:51:29;9.70;;;8.17;;
1603;SDS011;795;49.296;11.348;2023-04-07T12:53:58;8.07;;;7.27;;
1603;SDS011;795;49.296;11.348;2023-04-07T12:56:26;8.23;;;7.43;;
1603;SDS011;795;49.296;11.348;2023-04-07T12:58:53;9.43;;;8.00;;
1603;SDS011;795;49.296;11.348;2023-04-07T13:01:20;8.90;;;7.67;;
1603;SDS011;795;49.296;11.348;2023-04-07T13:03:47;9.17;;;8.27;;
1603;SDS011;795;49.296;11.348;2023-04-07T13:06:15;9.00;;;8.13;;
1603;SDS011;795;49.296;11.348;2023-04-07T13:08:42;10.30;;;9.13;;
1603;SDS011;795;49.296;11.348;2023-04-07T13:11:09;10.67;;;9.43;;
1603;SDS011;795;49.296;11.348;2023-04-07T13:13:36;10.33;;;9.30;;
1603;SDS011;795;49.296;11.348;2023-04-07T13:16:03;12.33;;;8.60;;
1603;SDS011;795;49.296;11.348;2023-04-07T13:18:30;9.90;;;9.00;;
1603;SDS011;795;49.296;11.348;2023-04-07T13:20:57;13.23;;;11.23;;
1603;SDS011;795;49.296;11.348;2023-04-07T13:23:44;8.97;;;8.10;;
1603;SDS011;795;49.296;11.348;2023-04-07T13:26:11;12.03;;;7.97;;
1603;SDS011;795;49.296;11.348;2023-04-07T13:28:38;9.17;;;8.20;;
1603;SDS011;795;49.296;11.348;2023-04-07T13:31:05;9.40;;;8.10;;
1603;SDS011;795;49.296;11.348;2023-04-07T13:33:33;11.23;;;8.50;;
1603;SDS011;795;49.296;11.348;2023-04-07T13:36:00;10.67;;;9.53;;
1603;SDS011;795;49.296;11.348;2023-04-07T13:38:27;10.90;;;9.80;;
1603;SDS011;795;49.296;11.348;2023-04-07T13:40:54;9.80;;;8.90;;
1603;SDS011;795;49.296;11.348;2023-04-07T13:43:21;9.93;;;8.10;;
1603;SDS011;795;49.296;11.348;2023-04-07T13:45:48;8.27;;;7.57;;
1603;SDS011;795;49.296;11.348;2023-04-07T13:48:17;8.83;;;8.07;;
1603;SDS011;795;49.296;11.348;2023-04-07T13:50:44;9.73;;;8.80;;
1603;SDS011;795;49.296;11.348;2023-04-07T13:53:11;16.10;;;8.93;;
1603;SDS011;795;49.296;11.348;2023-04-07T13:55:38;9.43;;;7.63;;
1603;SDS011;795;49.296;11.348;2023-04-07T13:58:05;9.13;;;8.20;;
1603;SDS011;795;49.296;11.348;2023-04-07T14:00:32;8.33;;;7.53;;
1603;SDS011;795;49.296;11.348;2023-04-07T14:03:00;9.83;;;8.93;;
1603;SDS011;795;49.296;11.348;2023-04-07T14:05:28;9.00;;;8.20;;
1603;SDS011;795;49.296;11.348;2023-04-07T14:07:54;8.37;;;7.60;;
1603;SDS011;795;49.296;11.348;2023-04-07T14:10:21;8.77;;;7.80;;
1603;SDS011;795;49.296;11.348;2023-04-07T14:12:48;9.53;;;8.63;;
1603;SDS011;795;49.296;11.348;2023-04-07T14:15:16;8.93;;;8.10;;
1603;SDS011;795;49.296;11.348;2023-04-07T14:17:43;8.40;;;6.00;;
1603;SDS011;795;49.296;11.348;2023-04-07T14:20:11;12.43;;;8.73;;
1603;SDS011;795;49.296;11.348;2023-04-07T14:22:38;9.00;;;6.93;;
1603;SDS011;795;49.296;11.348;2023-04-07T14:25:05;8.00;;;7.30;;
1603;SDS011;795;49.296;11.348;2023-04-07T14:27:33;7.07;;;6.30;;
1603;SDS011;795;49.296;11.348;2023-04-07T14:30:00;7.43;;;6.70;;
1603;SDS011;795;49.296;11.348;2023-04-07T14:32:27;7.50;;;6.80;;
1603;SDS011;795;49.296;11.348;2023-04-07T14:34:58;9.60;;;7.20;;
1603;SDS011;795;49.296;11.348;2023-04-07T14:37:27;11.53;;;8.80;;
1603;SDS011;795;49.296;11.348;2023-04-07T14:39:55;7.20;;;6.50;;
1603;SDS011;795;49.296;11.348;2023-04-07T14:42:25;7.00;;;6.47;;
1603;SDS011;795;49.296;11.348;2023-04-07T14:44:54;8.73;;;7.83;;
1603;SDS011;795;49.296;11.348;2023-04-07T14:47:21;8.57;;;7.77;;
1603;SDS011;795;49.296;11.348;2023-04-07T14:49:48;8.30;;;6.57;;
1603;SDS011;795;49.296;11.348;2023-04-07T14:52:18;7.70;;;6.10;;
1603;SDS011;795;49.296;11.348;2023-04-07T14:54:46;7.33;;;6.63;;
1603;SDS011;795;49.296;11.348;2023-04-07T14:57:14;8.90;;;7.33;;
1603;SDS011;795;49.296;11.348;2023-04-07T14:59:42;9.10;;;8.20;;
1603;SDS011;795;49.296;11.348;2023-04-07T15:02:09;8.83;;;7.60;;
1603;SDS011;795;49.296;11.348;2023-04-07T15:04:37;10.47;;;9.40;;
1603;SDS011;795;49.296;11.348;2023-04-07T15:07:05;7.57;;;5.73;;
1603;SDS011;795;49.296;11.348;2023-04-07T15:09:32;7.53;;;6.27;;
1603;SDS011;795;49.296;11.348;2023-04-07T15:11:58;7.10;;;6.43;;
1603;SDS011;795;49.296;11.348;2023-04-07T15:14:26;8.40;;;7.60;;
1603;SDS011;795;49.296;11.348;2023-04-07T15:16:53;8.30;;;7.50;;
1603;SDS011;795;49.296;11.348;2023-04-07T15:19:20;7.63;;;6.93;;
1603;SDS011;795;49.296;11.348;2023-04-07T15:21:47;6.53;;;5.87;;
1603;SDS011;795;49.296;11.348;2023-04-07T15:24:14;7.80;;;7.00;;
1603;SDS011;795;49.296;11.348;2023-04-07T15:26:41;6.90;;;6.30;;
1603;SDS011;795;49.296;11.348;2023-04-07T15:29:08;7.90;;;7.13;;
1603;SDS011;795;49.296;11.348;2023-04-07T15:31:35;8.33;;;7.63;;
1603;SDS011;795;49.296;11.348;2023-04-07T15:34:03;7.20;;;6.50;;
1603;SDS011;795;49.296;11.348;2023-04-07T15:36:30;10.33;;;9.33;;
1603;SDS011;795;49.296;11.348;2023-04-07T15:39:00;8.33;;;7.53;;